Time;durP1;ratioP1;P1;durP2;ratioP2;P2;SDS_P1;SDS_P2;PMS_P1;PMS_P2;Temp;Humidity;BMP_temperature;BMP_pressure;BME280_temperature;BME280_humidity;BME280_pressure;Samples;Min_cycle;Max_cycle;Signal;HPM_P1;HPM_P2
2023/04/24 00:02:21;;;;;;;1999.90;999.90;;;13.50;99.90;;;;;;5048018;28;20425;-72
2023/04/24 00:04:48;;;;;;;1999.90;999.90;;;13.50;99.90;;;;;;5047451;28;20444;-73
2023/04/24 00:07:16;;;;;;;1999.90;999.90;;;13.50;99.90;;;;;;5046224;28;20425;-70
2023/04/24 00:09:43;;;;;;;1999.90;999.90;;;13.20;99.90;;;;;;5048184;28;20866;-70
2023/04/24 00:12:11;;;;;;;1999.90;999.90;;;13.00;99.90;;;;;;5047690;28;20425;-72
2023/04/24 00:14:38;;;;;;;1999.90;999.90;;;13.00;99.90;;;;;;5047515;28;20437;-72
2023/04/24 00:17:04;;;;;;;1999.90;999.90;;;12.80;99.90;;;;;;5046541;28;20463;-72
2023/04/24 00:19:31;;;;;;;1999.90;999.90;;;12.80;99.90;;;;;;5048305;28;20433;-72
2023/04/24 00:21:57;;;;;;;1999.90;999.90;;;12.60;99.90;;;;;;5049816;28;20525;-72
2023/04/24 00:24:24;;;;;;;1999.90;999.90;;;12.70;99.90;;;;;;5048753;28;20437;-72
2023/04/24 00:26:51;;;;;;;1999.90;999.90;;;12.80;99.90;;;;;;5049321;28;20959;-73
2023/04/24 00:29:18;;;;;;;1999.90;999.90;;;12.80;99.90;;;;;;5051059;28;20981;-72
2023/04/24 00:31:45;;;;;;;1999.90;999.90;;;12.90;99.90;;;;;;5089720;22;20889;-74
2023/04/24 00:34:12;;;;;;;1999.90;999.90;;;12.90;99.90;;;;;;5074896;28;20423;-70
2023/04/24 00:36:39;;;;;;;1999.90;999.90;;;12.80;99.90;;;;;;5082948;28;20432;-72
2023/04/24 00:39:08;;;;;;;1999.90;999.90;;;12.80;99.90;;;;;;5070654;28;20487;-72
2023/04/24 00:41:35;;;;;;;1999.90;999.90;;;12.80;99.90;;;;;;5070116;28;21155;-71
2023/04/24 00:44:02;;;;;;;1999.90;999.90;;;12.90;99.90;;;;;;5064344;28;20481;-72
2023/04/24 00:46:32;;;;;;;1999.90;999.90;;;13.00;99.90;;;;;;5064464;28;20436;-72
2023/04/24 00:49:00;;;;;;;1999.90;999.90;;;13.00;99.90;;;;;;5061547;28;20459;-72
2023/04/24 00:51:27;;;;;;;1999.90;999.90;;;13.10;99.90;;;;;;5057797;28;20429;-70
2023/04/24 00:53:53;;;;;;;1999.90;999.90;;;13.10;99.90;;;;;;5053979;28;20516;-72
2023/04/24 00:56:20;;;;;;;1999.90;999.90;;;13.20;99.90;;;;;;5052714;28;20438;-72
2023/04/24 00:58:48;;;;;;;1999.90;999.90;;;13.10;99.90;;;;;;5065861;28;20435;-72
2023/04/24 01:01:15;;;;;;;1999.90;999.90;;;13.10;99.90;;;;;;5062673;28;20491;-72
2023/04/24 01:03:43;;;;;;;1999.90;999.90;;;12.90;99.90;;;;;;5060643;28;20425;-72
2023/04/24 01:06:11;;;;;;;1999.90;999.90;;;12.80;99.90;;;;;;5056289;28;20987;-71
2023/04/24 01:08:39;;;;;;;1999.90;999.90;;;12.90;99.90;;;;;;5053564;28;20433;-74
2023/04/24 01:11:06;;;;;;;1999.90;999.90;;;12.90;99.90;;;;;;5059359;28;20925;-74
2023/04/24 01:13:33;;;;;;;1999.90;999.90;;;13.00;99.90;;;;;;5064198;28;20973;-74
2023/04/24 01:16:01;;;;;;;1999.90;999.90;;;13.10;99.90;;;;;;5058569;28;20498;-74
2023/04/24 01:18:28;;;;;;;1999.90;999.90;;;13.00;99.90;;;;;;5058463;28;20429;-72
2023/04/24 01:20:59;;;;;;;1999.90;999.90;;;13.00;99.90;;;;;;5057116;28;20437;-72
2023/04/24 01:23:27;;;;;;;1999.90;999.90;;;13.00;99.90;;;;;;5051970;28;20429;-72
2023/04/24 01:25:54;;;;;;;1999.90;999.90;;;13.00;99.90;;;;;;5065699;28;20435;-72
2023/04/24 01:28:21;;;;;;;1999.90;999.90;;;12.90;99.90;;;;;;5059393;28;20915;-75
2023/04/24 01:30:48;;;;;;;1999.90;999.90;;;12.90;99.90;;;;;;5058186;28;20435;-72
2023/04/24 01:33:15;;;;;;;1999.90;999.90;;;12.80;99.90;;;;;;5055032;28;20429;-72
2023/04/24 01:35:42;;;;;;;1999.90;999.90;;;12.70;99.90;;;;;;5052453;28;20429;-69
2023/04/24 01:38:08;;;;;;;1999.90;999.90;;;12.70;99.90;;;;;;5058232;28;20489;-72
2023/04/24 01:40:36;;;;;;;1999.90;999.90;;;12.70;99.90;;;;;;5057303;28;20959;-73
2023/04/24 01:43:03;;;;;;;1999.90;999.90;;;12.70;99.90;;;;;;5061790;28;20486;-72
2023/04/24 01:45:29;;;;;;;1999.90;999.90;;;12.70;99.90;;;;;;5055738;28;20433;-71
2023/04/24 01:47:57;;;;;;;1999.90;999.90;;;12.70;99.90;;;;;;5052398;28;20483;-73
2023/04/24 01:50:23;;;;;;;1999.90;999.90;;;12.80;99.90;;;;;;5054932;28;20481;-72
2023/04/24 01:52:50;;;;;;;1999.90;999.90;;;12.90;99.90;;;;;;5063695;28;20427;-72
2023/04/24 01:55:16;;;;;;;1999.90;999.90;;;12.90;99.90;;;;;;5059472;28;20430;-72
2023/04/24 01:57:44;;;;;;;1999.90;999.90;;;12.80;99.90;;;;;;5058182;28;20465;-72
2023/04/24 02:00:12;;;;;;;1999.90;999.90;;;12.70;99.90;;;;;;5053160;28;20439;-72
2023/04/24 02:02:40;;;;;;;1999.90;999.90;;;12.70;99.90;;;;;;5051114;28;20436;-73
2023/04/24 02:05:08;;;;;;;1999.90;999.90;;;12.70;99.90;;;;;;5056852;28;20518;-70
2023/04/24 02:07:35;;;;;;;1999.90;999.90;;;12.60;99.90;;;;;;5065496;28;20492;-71
2023/04/24 02:10:01;;;;;;;1999.90;999.90;;;12.60;99.90;;;;;;5060622;28;20914;-72
2023/04/24 02:12:28;;;;;;;1999.90;999.90;;;12.40;99.90;;;;;;5055612;28;21108;-70
2023/04/24 02:14:56;;;;;;;1999.90;999.90;;;12.50;99.90;;;;;;5052250;28;20570;-70
2023/04/24 02:17:22;;;;;;;1999.90;999.90;;;12.60;99.90;;;;;;5057057;28;20550;-73
2023/04/24 02:19:49;;;;;;;1999.90;999.90;;;12.60;99.90;;;;;;5066458;28;20431;-72
2023/04/24 02:22:16;;;;;;;1999.90;999.90;;;12.50;99.90;;;;;;5057978;28;20508;-72
2023/04/24 02:24:43;;;;;;;1999.90;999.90;;;12.40;99.90;;;;;;5059598;28;20652;-72
2023/04/24 02:27:09;;;;;;;1999.90;999.90;;;12.40;99.90;;;;;;5054285;28;20485;-72
2023/04/24 02:29:36;;;;;;;1999.90;999.90;;;12.40;99.90;;;;;;5049071;28;20429;-73
2023/04/24 02:32:04;;;;;;;1999.90;999.90;;;12.40;99.90;;;;;;5063130;28;20458;-72
2023/04/24 02:34:30;;;;;;;1999.90;999.90;;;12.40;99.90;;;;;;5045470;28;20441;-73
2023/04/24 02:36:57;;;;;;;1999.90;999.90;;;12.40;99.90;;;;;;5059436;28;20486;-72
2023/04/24 02:39:24;;;;;;;1999.90;999.90;;;12.40;99.90;;;;;;5053871;28;20958;-72
2023/04/24 02:41:50;;;;;;;1999.90;999.90;;;12.50;99.90;;;;;;5048597;28;20483;-72
2023/04/24 02:44:18;;;;;;;1999.90;999.90;;;12.50;99.90;;;;;;5059732;28;20460;-72
2023/04/24 02:46:44;;;;;;;1999.90;999.90;;;12.40;99.90;;;;;;5064632;28;20800;-72
2023/04/24 02:49:12;;;;;;;1999.90;999.90;;;12.50;99.90;;;;;;5058600;28;20448;-70
2023/04/24 02:51:40;;;;;;;1999.90;999.90;;;12.50;99.90;;;;;;5055198;28;20478;-72
2023/04/24 02:54:07;;;;;;;1999.90;999.90;;;12.40;99.90;;;;;;5050976;28;20434;-72
2023/04/24 02:56:34;;;;;;;1999.90;999.90;;;12.50;99.90;;;;;;5062211;28;20489;-72
2023/04/24 02:59:01;;;;;;;1999.90;999.90;;;12.50;99.90;;;;;;5064014;28;20956;-72
2023/04/24 03:01:27;;;;;;;1999.90;999.90;;;12.40;99.90;;;;;;5060201;28;20437;-72
2023/04/24 03:03:54;;;;;;;1999.90;999.90;;;12.30;99.90;;;;;;5056136;28;20423;-69
2023/04/24 03:06:22;;;;;;;1999.90;999.90;;;12.30;99.90;;;;;;5052744;28;20437;-71
2023/04/24 03:08:49;;;;;;;1999.90;999.90;;;12.20;99.90;;;;;;5054879;28;20439;-70
2023/04/24 03:11:15;;;;;;;1999.90;999.90;;;12.20;99.90;;;;;;5057776;28;20437;-72
2023/04/24 03:13:42;;;;;;;1999.90;999.90;;;12.20;99.90;;;;;;5063759;28;20957;-71
2023/04/24 03:16:09;;;;;;;1999.90;999.90;;;12.20;99.90;;;;;;5057204;28;20499;-72
2023/04/24 03:18:35;;;;;;;1999.90;999.90;;;12.50;99.90;;;;;;5053130;28;20805;-72
2023/04/24 03:21:03;;;;;;;1999.90;999.90;;;12.10;99.90;;;;;;5047442;28;20434;-71
2023/04/24 03:23:31;;;;;;;1999.90;999.90;;;12.20;99.90;;;;;;5052381;28;20983;-70
2023/04/24 03:25:57;;;;;;;1999.90;999.90;;;12.20;99.90;;;;;;5059158;28;20423;-72
2023/04/24 03:28:24;;;;;;;1999.90;999.90;;;12.10;99.90;;;;;;5057446;28;20483;-72
2023/04/24 03:30:51;;;;;;;1999.90;999.90;;;12.20;99.90;;;;;;5058069;28;20515;-72
2023/04/24 03:33:18;;;;;;;1999.90;999.90;;;12.20;99.90;;;;;;5052047;28;20435;-73
2023/04/24 03:35:45;;;;;;;1999.90;999.90;;;12.20;99.90;;;;;;5053594;28;20502;-72
2023/04/24 03:38:11;;;;;;;1999.90;999.90;;;12.10;99.90;;;;;;5062064;28;20525;-71
2023/04/24 03:40:39;;;;;;;1999.90;999.90;;;12.10;99.90;;;;;;5057856;28;20844;-74
2023/04/24 03:43:06;;;;;;;1999.90;999.90;;;12.10;99.90;;;;;;5054389;28;20821;-74
2023/04/24 03:45:32;;;;;;;1999.90;999.90;;;12.00;99.90;;;;;;5052538;28;20437;-74
2023/04/24 03:47:59;;;;;;;1999.90;999.90;;;12.10;99.90;;;;;;5048575;28;20475;-74
2023/04/24 03:50:26;;;;;;;1999.90;999.90;;;12.10;99.90;;;;;;5056796;28;20461;-71
2023/04/24 03:52:53;;;;;;;1999.90;999.90;;;12.10;99.90;;;;;;5056075;28;20459;-71
2023/04/24 03:55:19;;;;;;;1999.90;999.90;;;12.20;99.90;;;;;;5052737;28;20432;-72
2023/04/24 03:57:47;;;;;;;1999.90;999.90;;;12.10;99.90;;;;;;5056941;28;20781;-73
2023/04/24 04:00:14;;;;;;;1999.90;999.90;;;12.10;99.90;;;;;;5055624;28;20524;-72
2023/04/24 04:02:41;;;;;;;1999.90;999.90;;;12.10;99.90;;;;;;5068933;28;20527;-72
2023/04/24 04:05:08;;;;;;;1999.90;999.90;;;12.10;99.90;;;;;;5059168;28;20482;-72
2023/04/24 04:07:35;;;;;;;1999.90;999.90;;;12.00;99.90;;;;;;5056954;28;20521;-70
2023/04/24 04:10:02;;;;;;;1999.90;999.90;;;12.10;99.90;;;;;;5052237;28;20437;-72
2023/04/24 04:12:28;;;;;;;1999.90;999.90;;;12.00;99.90;;;;;;5060703;28;20436;-72
2023/04/24 04:14:56;;;;;;;1999.90;999.90;;;12.10;99.90;;;;;;5060773;28;20847;-72
2023/04/24 04:17:23;;;;;;;1999.90;999.90;;;12.10;99.90;;;;;;5057875;28;20460;-72
2023/04/24 04:19:50;;;;;;;1999.90;999.90;;;12.10;99.90;;;;;;5052511;28;22326;-72
2023/04/24 04:22:17;;;;;;;1999.90;999.90;;;12.10;99.90;;;;;;5054689;28;20436;-72
2023/04/24 04:24:44;;;;;;;1999.90;999.90;;;12.10;99.90;;;;;;5065431;28;20845;-72
2023/04/24 04:27:12;;;;;;;1999.90;999.90;;;12.10;99.90;;;;;;5063643;28;20465;-71
2023/04/24 04:29:39;;;;;;;1999.90;999.90;;;12.00;99.90;;;;;;5059809;28;20530;-72
2023/04/24 04:32:07;;;;;;;1999.90;999.90;;;11.80;99.90;;;;;;5055823;28;20481;-72
2023/04/24 04:34:34;;;;;;;1999.90;999.90;;;11.80;99.90;;;;;;5057939;28;20480;-74
2023/04/24 04:37:01;;;;;;;1999.90;999.90;;;11.80;99.90;;;;;;5065335;28;20428;-74
2023/04/24 04:39:29;;;;;;;1999.90;999.90;;;11.80;99.90;;;;;;5060342;28;20437;-71
2023/04/24 04:41:56;;;;;;;1999.90;999.90;;;11.80;99.90;;;;;;5057267;28;20512;-74
2023/04/24 04:44:23;;;;;;;1999.90;999.90;;;11.90;99.90;;;;;;5053006;28;20433;-73
2023/04/24 04:46:53;;;;;;;1999.90;999.90;;;11.90;99.90;;;;;;5065497;28;20441;-73
2023/04/24 04:49:21;;;;;;;1999.90;999.90;;;11.80;99.90;;;;;;5061011;28;20486;-73
2023/04/24 04:51:48;;;;;;;1999.90;999.90;;;11.90;99.90;;;;;;5059244;28;20935;-71
2023/04/24 04:54:15;;;;;;;1999.90;999.90;;;12.00;99.90;;;;;;5053944;28;20501;-70
2023/04/24 04:56:42;;;;;;;1999.90;999.90;;;12.10;99.90;;;;;;5057478;28;20995;-72
2023/04/24 04:59:08;;;;;;;1999.90;999.90;;;12.10;99.90;;;;;;5064848;28;20492;-70
2023/04/24 05:01:35;;;;;;;1999.90;999.90;;;12.10;99.90;;;;;;5062323;28;20819;-70
2023/04/24 05:04:02;;;;;;;1999.90;999.90;;;12.20;99.90;;;;;;5056585;28;20538;-72
2023/04/24 05:06:30;;;;;;;1999.90;999.90;;;12.20;99.90;;;;;;5050895;28;20433;-72
2023/04/24 05:08:57;;;;;;;1999.90;999.90;;;12.30;99.90;;;;;;5065558;28;20423;-70
2023/04/24 05:11:24;;;;;;;1999.90;999.90;;;12.20;99.90;;;;;;5064802;28;20804;-70
2023/04/24 05:13:50;;;;;;;1999.90;999.90;;;12.40;99.90;;;;;;5059305;28;20428;-71
2023/04/24 05:16:17;;;;;;;1999.90;999.90;;;12.30;99.90;;;;;;5050468;28;20547;-71
2023/04/24 05:18:43;;;;;;;1999.90;999.90;;;12.30;99.90;;;;;;5053369;28;20915;-72
2023/04/24 05:21:10;;;;;;;1999.90;999.90;;;12.10;99.90;;;;;;5056490;28;20493;-70
2023/04/24 05:23:38;;;;;;;1999.90;999.90;;;12.20;99.90;;;;;;5065113;28;20491;-69
2023/04/24 05:26:05;;;;;;;1999.90;999.90;;;12.30;99.90;;;;;;5057946;28;20437;-72
2023/04/24 05:28:31;;;;;;;1999.90;999.90;;;12.30;99.90;;;;;;5052333;28;20459;-71
2023/04/24 05:30:59;;;;;;;1999.90;999.90;;;12.40;99.90;;;;;;5055462;28;20886;-69
2023/04/24 05:33:25;;;;;;;1999.90;999.90;;;12.40;99.90;;;;;;5059782;28;20449;-72
2023/04/24 05:35:52;;;;;;;1999.90;999.90;;;12.60;99.90;;;;;;5055396;28;20491;-72
2023/04/24 05:38:19;;;;;;;1999.90;999.90;;;12.80;99.90;;;;;;5051688;28;20460;-68
2023/04/24 05:40:47;;;;;;;1999.90;999.90;;;12.90;99.90;;;;;;5051854;28;20948;-73
2023/04/24 05:43:14;;;;;;;1999.90;999.90;;;13.00;99.90;;;;;;5048489;28;20520;-72
2023/04/24 05:45:40;;;;;;;1999.90;999.90;;;12.90;99.90;;;;;;5049092;28;20423;-69
2023/04/24 05:48:07;;;;;;;1999.90;999.90;;;12.90;99.90;;;;;;5058803;28;20431;-72
2023/04/24 05:50:34;;;;;;;1999.90;999.90;;;12.80;99.90;;;;;;5055426;28;20463;-71
2023/04/24 05:53:01;;;;;;;1999.90;999.90;;;12.90;99.90;;;;;;5052652;28;20498;-70
2023/04/24 05:55:28;;;;;;;1999.90;999.90;;;12.80;99.90;;;;;;5050637;28;20455;-72
2023/04/24 05:57:56;;;;;;;1999.90;999.90;;;12.80;99.90;;;;;;5063781;28;20489;-72
2023/04/24 06:00:23;;;;;;;1999.90;999.90;;;12.80;99.90;;;;;;5058258;28;20437;-70
2023/04/24 06:02:50;;;;;;;1999.90;999.90;;;12.90;99.90;;;;;;5055725;28;20780;-72
2023/04/24 06:05:17;;;;;;;1999.90;999.90;;;12.90;99.90;;;;;;5048721;28;20923;-73
2023/04/24 06:07:43;;;;;;;1999.90;999.90;;;13.00;99.90;;;;;;5055135;28;20433;-71
2023/04/24 06:10:11;;;;;;;1999.90;999.90;;;13.10;99.90;;;;;;5047755;28;20491;-72
2023/04/24 06:12:37;;;;;;;1999.90;999.90;;;13.00;99.90;;;;;;5056387;28;20437;-72
2023/04/24 06:15:06;;;;;;;1999.90;999.90;;;13.00;99.90;;;;;;5052237;28;20423;-69
2023/04/24 06:17:33;;;;;;;1999.90;999.90;;;13.00;99.90;;;;;;5049647;28;20815;-71
2023/04/24 06:20:00;;;;;;;1999.90;999.90;;;13.00;99.90;;;;;;5056609;28;20437;-72
2023/04/24 06:22:26;;;;;;;1999.90;999.90;;;13.00;99.90;;;;;;5048594;28;20475;-70
2023/04/24 06:24:53;;;;;;;1999.90;999.90;;;13.00;99.90;;;;;;5052623;28;20429;-72
2023/04/24 06:27:19;;;;;;;1999.90;999.90;;;12.90;99.90;;;;;;5049111;28;20977;-72
2023/04/24 06:29:52;;;;;;;1999.90;999.90;;;12.90;99.90;;;;;;5049107;28;20429;-70
2023/04/24 06:32:20;;;;;;;1999.90;999.90;;;12.90;99.90;;;;;;5056973;28;20425;-71
2023/04/24 06:34:47;;;;;;;1999.90;999.90;;;13.00;99.90;;;;;;5047973;28;20433;-73
2023/04/24 06:37:13;;;;;;;1999.90;999.90;;;13.20;99.90;;;;;;5048814;28;20518;-73
2023/04/24 06:39:40;;;;;;;1999.90;999.90;;;13.50;99.90;;;;;;5044780;28;20429;-73
2023/04/24 06:42:07;;;;;;;1999.90;999.90;;;13.50;99.90;;;;;;5048393;28;20433;-73
2023/04/24 06:44:37;;;;;;;1999.90;999.90;;;13.60;99.90;;;;;;5049839;28;20508;-73
2023/04/24 06:47:04;;;;;;;1999.90;999.90;;;13.50;99.90;;;;;;5048675;28;20780;-73
2023/04/24 06:49:32;;;;;;;1999.90;999.90;;;13.60;99.90;;;;;;5045463;28;20509;-73
2023/04/24 06:51:58;;;;;;;1999.90;999.90;;;13.80;99.90;;;;;;5030935;28;20415;-73
2023/04/24 06:54:25;;;;;;;1999.90;999.90;;;14.10;99.90;;;;;;5030988;28;20481;-72
2023/04/24 06:56:52;;;;;;;1999.90;999.90;;;13.90;99.90;;;;;;5030797;28;20411;-73
2023/04/24 06:59:18;;;;;;;1999.90;999.90;;;14.00;99.90;;;;;;5041293;28;20945;-72
2023/04/24 07:01:45;;;;;;;1999.90;999.90;;;13.80;99.90;;;;;;5045577;28;20494;-73
2023/04/24 07:04:12;;;;;;;1999.90;999.90;;;13.60;99.90;;;;;;5042133;28;20425;-73
2023/04/24 07:06:40;;;;;;;1999.90;999.90;;;13.60;99.90;;;;;;5050438;28;20953;-72
2023/04/24 07:09:08;;;;;;;1999.90;999.90;;;13.40;99.90;;;;;;5050551;28;20409;-73
2023/04/24 07:11:36;;;;;;;1999.90;999.90;;;13.40;99.90;;;;;;5049286;28;20424;-72
2023/04/24 07:14:03;;;;;;;1999.90;999.90;;;13.50;99.90;;;;;;5041835;28;20447;-73
2023/04/24 07:16:30;;;;;;;1999.90;999.90;;;13.80;99.90;;;;;;5050289;28;20902;-72
2023/04/24 07:18:56;;;;;;;1999.90;999.90;;;14.00;99.90;;;;;;5050167;28;20934;-73
2023/04/24 07:21:23;;;;;;;1999.90;999.90;;;14.10;99.90;;;;;;5048404;28;20487;-72
2023/04/24 07:23:51;;;;;;;1999.90;999.90;;;14.20;99.90;;;;;;5050142;28;20418;-73
2023/04/24 07:26:17;;;;;;;1999.90;999.90;;;14.50;99.90;;;;;;5050004;28;20826;-73
2023/04/24 07:28:44;;;;;;;1999.90;999.90;;;14.60;99.90;;;;;;5050110;28;20992;-71
2023/04/24 07:31:12;;;;;;;1999.90;999.90;;;15.10;99.90;;;;;;5048636;28;20494;-72
2023/04/24 07:33:39;;;;;;;1999.90;999.90;;;15.20;99.90;;;;;;5043458;28;20425;-72
2023/04/24 07:36:06;;;;;;;1999.90;999.90;;;15.20;99.90;;;;;;5052239;28;20487;-73
2023/04/24 07:38:32;;;;;;;1999.90;999.90;;;15.40;99.90;;;;;;5054503;28;20871;-74
2023/04/24 07:41:00;;;;;;;1999.90;999.90;;;15.10;99.90;;;;;;5049263;28;20486;-73
2023/04/24 07:43:27;;;;;;;1999.90;999.90;;;15.40;99.90;;;;;;5048304;28;20445;-73
2023/04/24 07:45:54;;;;;;;1999.90;999.90;;;15.30;99.90;;;;;;5057358;28;20917;-74
2023/04/24 07:48:22;;;;;;;1999.90;999.90;;;15.20;99.90;;;;;;5053979;28;20432;-71
2023/04/24 07:50:48;;;;;;;1999.90;999.90;;;15.20;99.90;;;;;;5042827;28;20997;-73
2023/04/24 07:53:15;;;;;;;1999.90;999.90;;;15.10;99.90;;;;;;5046181;28;20429;-72
2023/04/24 07:55:41;;;;;;;1999.90;999.90;;;15.10;99.90;;;;;;5048795;28;20478;-72
2023/04/24 07:58:09;;;;;;;1999.90;999.90;;;14.80;99.90;;;;;;5056578;28;20484;-73
2023/04/24 08:00:36;;;;;;;1999.90;999.90;;;14.70;99.90;;;;;;5050012;28;20866;-72
2023/04/24 08:03:03;;;;;;;1999.90;999.90;;;14.60;99.90;;;;;;5054269;28;20425;-73
2023/04/24 08:05:29;;;;;;;1999.90;999.90;;;14.50;99.90;;;;;;5049305;28;20429;-73
2023/04/24 08:07:56;;;;;;;1999.90;999.90;;;14.30;99.90;;;;;;5050262;28;20430;-73
2023/04/24 08:10:23;;;;;;;1999.90;999.90;;;14.30;99.90;;;;;;5051497;28;20435;-74
2023/04/24 08:12:50;;;;;;;1999.90;999.90;;;14.30;99.90;;;;;;5058594;28;20441;-73
2023/04/24 08:15:18;;;;;;;1999.90;999.90;;;14.60;99.90;;;;;;5058844;28;20429;-73
2023/04/24 08:17:45;;;;;;;1999.90;999.90;;;14.70;99.90;;;;;;5052835;28;20424;-72
2023/04/24 08:20:13;;;;;;;1999.90;999.90;;;14.40;99.90;;;;;;5049783;28;20471;-73
2023/04/24 08:22:40;;;;;;;1999.90;999.90;;;14.20;99.90;;;;;;5049386;28;20452;-71
2023/04/24 08:25:07;;;;;;;1999.90;999.90;;;14.00;99.90;;;;;;5048816;28;20439;-70
2023/04/24 08:27:34;;;;;;;1999.90;999.90;;;13.90;99.90;;;;;;5044842;28;20415;-72
2023/04/24 08:30:00;;;;;;;1999.90;999.90;;;14.00;99.90;;;;;;5030205;28;20419;-71
2023/04/24 08:32:29;;;;;;;1999.90;999.90;;;14.20;99.90;;;;;;5029475;28;20505;-72
2023/04/24 08:34:56;;;;;;;1999.90;999.90;;;14.30;99.90;;;;;;5030413;28;20808;-72
2023/04/24 08:37:23;;;;;;;1999.90;999.90;;;14.60;99.90;;;;;;5053295;28;20433;-73
2023/04/24 08:39:50;;;;;;;1999.90;999.90;;;14.90;99.90;;;;;;5049408;28;20432;-72
2023/04/24 08:42:18;;;;;;;1999.90;999.90;;;15.40;99.90;;;;;;5052559;28;20413;-72
2023/04/24 08:44:45;;;;;;;1999.90;999.90;;;15.40;99.90;;;;;;5053650;28;20433;-72
2023/04/24 08:47:12;;;;;;;1999.90;999.90;;;15.80;99.90;;;;;;5052608;28;20433;-72
2023/04/24 08:49:40;;;;;;;1999.90;999.90;;;16.20;98.80;;;;;;5047766;28;20415;-71
2023/04/24 08:52:07;;;;;;;1999.90;999.90;;;16.40;97.00;;;;;;5033670;28;20407;-72
2023/04/24 08:54:35;;;;;;;1999.90;999.90;;;16.50;95.50;;;;;;5034087;28;20419;-73
2023/04/24 08:57:03;;;;;;;1999.90;999.90;;;16.90;96.30;;;;;;5033571;28;20422;-72
2023/04/24 08:59:30;;;;;;;1999.90;999.90;;;17.00;94.90;;;;;;5044140;28;20444;-72
2023/04/24 09:01:58;;;;;;;1999.90;999.90;;;16.70;94.50;;;;;;5044987;28;20789;-72
2023/04/24 09:04:26;;;;;;;1999.90;999.90;;;16.50;94.60;;;;;;5033461;28;20469;-72
2023/04/24 09:06:57;;;;;;;1999.90;999.90;;;16.30;93.90;;;;;;5033626;28;20422;-73
2023/04/24 09:09:24;;;;;;;1999.90;999.90;;;15.80;93.80;;;;;;5033303;28;20886;-69
2023/04/24 09:11:54;;;;;;;1999.90;999.90;;;15.60;95.00;;;;;;5061250;28;20943;-72
2023/04/24 09:14:22;;;;;;;1999.90;999.90;;;15.60;95.10;;;;;;5053345;28;20508;-73
2023/04/24 09:16:49;;;;;;;1999.90;999.90;;;15.50;95.00;;;;;;5052805;28;20923;-72
2023/04/24 09:19:16;;;;;;;1999.90;999.90;;;15.40;95.70;;;;;;5052910;28;20406;-72
2023/04/24 09:21:46;;;;;;;1999.90;999.90;;;15.40;95.60;;;;;;5053001;28;20764;-72
2023/04/24 09:24:18;;;;;;;1999.90;999.90;;;15.30;96.00;;;;;;5050887;28;20429;-71
2023/04/24 09:26:45;;;;;;;1999.90;999.90;;;15.20;96.10;;;;;;5032415;28;20426;-74
2023/04/24 09:29:16;;;;;;;1999.90;999.90;;;15.20;96.30;;;;;;5032278;28;20832;-75
2023/04/24 09:31:43;;;;;;;1999.90;999.90;;;15.80;97.00;;;;;;5032147;28;20423;-74
2023/04/24 09:34:09;;;;;;;1999.90;999.90;;;16.40;96.10;;;;;;5035933;28;20804;-72
2023/04/24 09:36:37;;;;;;;1999.90;999.90;;;16.60;94.70;;;;;;5046848;28;20967;-75
2023/04/24 09:39:07;;;;;;;1999.90;999.90;;;16.40;94.80;;;;;;5032520;28;20419;-72
2023/04/24 09:41:36;;;;;;;1999.90;999.90;;;16.20;95.40;;;;;;5033314;28;20419;-72
2023/04/24 09:44:13;;;;;;;1999.90;999.90;;;16.30;95.10;;;;;;5032682;28;20419;-72
2023/04/24 09:46:40;;;;;;;1999.90;999.90;;;16.70;95.00;;;;;;5043095;28;20436;-72
2023/04/24 09:49:11;;;;;;;1999.90;999.90;;;16.30;94.50;;;;;;5051389;28;20671;-72
2023/04/24 09:51:39;;;;;;;1999.90;999.90;;;16.30;95.00;;;;;;5038682;28;20952;-71
2023/04/24 09:54:15;;;;;;;1999.90;999.90;;;16.00;94.90;;;;;;5042739;28;20418;-72
2023/04/24 09:56:46;;;;;;;1999.90;999.90;;;16.10;95.70;;;;;;5052236;28;20511;-72
2023/04/24 09:59:13;;;;;;;1999.90;999.90;;;16.00;95.80;;;;;;5052718;28;20421;-72
2023/04/24 10:01:42;;;;;;;1999.90;999.90;;;15.90;95.90;;;;;;5052293;28;20421;-71
2023/04/24 10:04:18;;;;;;;1999.90;999.90;;;15.90;95.60;;;;;;5050505;28;20432;-71
2023/04/24 10:06:45;;;;;;;1999.90;999.90;;;16.00;96.50;;;;;;5031822;28;20514;-72
2023/04/24 10:09:13;;;;;;;1999.90;999.90;;;16.40;96.50;;;;;;5031231;28;21496;-70
2023/04/24 10:11:45;;;;;;;1999.90;999.90;;;16.00;95.20;;;;;;5031518;28;20415;-73
2023/04/24 10:14:13;;;;;;;1999.90;999.90;;;15.80;96.30;;;;;;5032501;28;20543;-72
2023/04/24 10:16:41;;;;;;;1999.90;999.90;;;16.20;96.30;;;;;;5042850;28;20768;-72
2023/04/24 10:19:08;;;;;;;1999.90;999.90;;;16.20;95.80;;;;;;5050132;28;20508;-72
2023/04/24 10:21:35;;;;;;;1999.90;999.90;;;16.20;95.40;;;;;;5050883;28;20475;-72
2023/04/24 10:24:04;;;;;;;1999.90;999.90;;;16.30;95.40;;;;;;5051453;28;20415;-73
2023/04/24 10:26:31;;;;;;;1999.90;999.90;;;16.50;94.20;;;;;;5050431;28;20460;-73
2023/04/24 10:29:00;;;;;;;1999.90;999.90;;;16.50;94.60;;;;;;5043467;28;20419;-72
2023/04/24 10:31:28;;;;;;;1999.90;999.90;;;16.30;94.50;;;;;;5031055;28;20417;-72
2023/04/24 10:33:55;;;;;;;1999.90;999.90;;;16.20;95.10;;;;;;5031184;28;20423;-72
2023/04/24 10:36:26;;;;;;;1999.90;999.90;;;15.90;94.90;;;;;;5031403;28;20509;-73
2023/04/24 10:38:55;;;;;;;1999.90;999.90;;;16.10;95.10;;;;;;5040067;28;21344;-73
2023/04/24 10:41:23;;;;;;;1999.90;999.90;;;15.90;95.20;;;;;;5039796;28;20469;-72
2023/04/24 10:44:04;;;;;;;1999.90;999.90;;;15.90;94.90;;;;;;5034190;28;20439;-72
2023/04/24 10:46:32;;;;;;;1999.90;999.90;;;15.90;95.00;;;;;;5049467;28;20429;-69
2023/04/24 10:48:59;;;;;;;1999.90;999.90;;;16.00;94.10;;;;;;5050987;28;20962;-73
2023/04/24 10:51:48;;;;;;;1999.90;999.90;;;16.00;94.50;;;;;;5052755;28;20437;-71
2023/04/24 10:54:25;;;;;;;1999.90;999.90;;;15.90;94.90;;;;;;5055461;28;20425;-71
2023/04/24 10:56:52;;;;;;;1999.90;999.90;;;16.00;94.20;;;;;;5044181;28;20433;-69
2023/04/24 10:59:26;;;;;;;1999.90;999.90;;;16.30;94.80;;;;;;5056908;28;20887;-72
2023/04/24 11:01:55;;;;;;;1999.90;999.90;;;16.60;94.30;;;;;;5053804;28;20455;-71
2023/04/24 11:04:31;;;;;;;1999.90;999.90;;;16.40;93.70;;;;;;5050465;28;20904;-72
2023/04/24 11:06:58;;;;;;;1999.90;999.90;;;16.40;94.00;;;;;;5052681;28;20424;-69
2023/04/24 11:09:28;;;;;;;1999.90;999.90;;;16.40;94.20;;;;;;5048084;28;20931;-72
2023/04/24 11:12:06;;;;;;;1999.90;999.90;;;16.20;95.30;;;;;;5052391;28;20436;-71
2023/04/24 11:15:00;;;;;;;1999.90;999.90;;;16.50;94.80;;;;;;5051038;28;20435;-72
2023/04/24 11:17:33;;;;;;;1999.90;999.90;;;16.40;93.90;;;;;;5051400;28;20474;-72
2023/04/24 11:20:05;;;;;;;1999.90;999.90;;;16.20;93.20;;;;;;5056271;28;20458;-72
2023/04/24 11:22:35;;;;;;;1999.90;999.90;;;15.90;93.30;;;;;;5054714;28;20425;-71
2023/04/24 11:25:03;;;;;;;1999.90;999.90;;;16.10;94.60;;;;;;5054562;28;20427;-72
2023/04/24 11:27:32;;;;;;;1999.90;999.90;;;16.10;95.40;;;;;;5055242;28;20919;-72
2023/04/24 11:30:04;;;;;;;1999.90;999.90;;;16.10;95.10;;;;;;5052645;28;20437;-73
2023/04/24 11:32:36;;;;;;;1999.90;999.90;;;16.20;94.90;;;;;;5051506;28;20435;-70
2023/04/24 11:35:05;;;;;;;1999.90;999.90;;;15.40;94.70;;;;;;5066039;28;20481;-71
2023/04/24 11:37:35;;;;;;;1999.90;999.90;;;15.30;95.80;;;;;;5051424;28;20488;-72
2023/04/24 11:40:03;;;;;;;1999.90;999.90;;;15.10;96.70;;;;;;5050554;28;20443;-72
2023/04/24 11:42:34;;;;;;;1999.90;999.90;;;15.10;97.50;;;;;;5052267;28;20436;-72
2023/04/24 11:45:01;;;;;;;1999.90;999.90;;;15.30;96.20;;;;;;5050445;28;20488;-71
2023/04/24 11:47:33;;;;;;;1999.90;999.90;;;15.50;96.30;;;;;;5062567;28;20818;-73
2023/04/24 11:50:01;;;;;;;1999.90;999.90;;;15.70;96.40;;;;;;5050961;28;20510;-72
2023/04/24 11:52:28;;;;;;;1999.90;999.90;;;16.00;96.30;;;;;;5057507;28;20511;-70
2023/04/24 11:54:55;;;;;;;1999.90;999.90;;;16.30;95.60;;;;;;5050723;28;20491;-72
2023/04/24 11:57:22;;;;;;;1999.90;999.90;;;16.40;95.90;;;;;;5048571;28;20424;-68
2023/04/24 11:59:49;;;;;;;1999.90;999.90;;;16.50;94.80;;;;;;5049382;28;20942;-72
2023/04/24 12:02:23;;;;;;;1999.90;999.90;;;16.30;95.80;;;;;;5054981;28;20477;-72